Time;durP1;ratioP1;P1;durP2;ratioP2;P2;SDS_P1;SDS_P2;PMS_P1;PMS_P2;Temp;Humidity;BMP_temperature;BMP_pressure;BME280_temperature;BME280_humidity;BME280_pressure;Samples;Min_cycle;Max_cycle;Signal;HPM_P1;HPM_P2
2022/01/17 00:00:18;;;;;;;102.87;59.03;;;;;;;4.03;100.00;103055.63;5110784;28;20027;-64
2022/01/17 00:02:45;;;;;;;93.07;57.17;;;;;;;4.05;100.00;103048.06;5110457;28;20095;-65
2022/01/17 00:05:11;;;;;;;99.70;57.47;;;;;;;4.06;100.00;103065.28;5109777;28;20035;-64
2022/01/17 00:07:37;;;;;;;103.73;60.10;;;;;;;4.08;100.00;103071.47;5110302;28;20631;-65
2022/01/17 00:10:05;;;;;;;98.67;61.10;;;;;;;4.08;100.00;103082.59;5110570;28;20055;-64
2022/01/17 00:12:33;;;;;;;101.03;58.00;;;;;;;4.07;100.00;103085.94;5109402;28;20016;-64
2022/01/17 00:14:58;;;;;;;102.67;58.53;;;;;;;4.07;100.00;103085.94;5110807;28;20527;-65
2022/01/17 00:17:35;;;;;;;92.97;55.33;;;;;;;4.08;100.00;103087.75;5110607;28;20114;-64
2022/01/17 00:20:09;;;;;;;98.67;58.37;;;;;;;4.10;100.00;103087.00;5110142;28;20297;-64
2022/01/17 00:22:35;;;;;;;92.43;55.43;;;;;;;4.11;100.00;103088.78;5109623;28;20026;-64
2022/01/17 00:25:01;;;;;;;98.20;56.53;;;;;;;4.11;100.00;103086.22;5110362;28;20023;-64
2022/01/17 00:27:26;;;;;;;94.93;57.97;;;;;;;4.12;100.00;103088.06;5092082;28;20023;-64
2022/01/17 00:29:51;;;;;;;111.00;59.00;;;;;;;4.12;100.00;103091.50;5110081;28;20019;-64
2022/01/17 00:32:16;;;;;;;98.47;56.93;;;;;;;4.13;100.00;103092.41;5092130;28;20023;-64
2022/01/17 00:34:42;;;;;;;94.30;55.33;;;;;;;4.13;100.00;103082.16;5109291;28;20118;-64
2022/01/17 00:37:07;;;;;;;103.67;58.40;;;;;;;4.13;100.00;103071.88;5110541;28;20103;-64
2022/01/17 00:39:33;;;;;;;90.50;55.00;;;;;;;4.13;100.00;103074.44;5110785;28;20092;-64
2022/01/17 00:41:58;;;;;;;92.10;54.43;;;;;;;4.13;100.00;103077.03;5109852;28;20076;-64
2022/01/17 00:44:23;;;;;;;89.70;53.70;;;;;;;4.14;100.00;103086.50;5110133;28;20081;-64
2022/01/17 00:46:51;;;;;;;82.03;51.63;;;;;;;4.13;100.00;103075.38;5109741;28;20051;-64
2022/01/17 00:49:16;;;;;;;91.67;53.63;;;;;;;4.13;100.00;103075.38;5110366;28;20047;-65
2022/01/17 00:51:42;;;;;;;84.23;52.10;;;;;;;4.13;100.00;103084.72;5110077;28;20051;-64
2022/01/17 00:54:08;;;;;;;91.13;52.13;;;;;;;4.12;100.00;103088.94;5110331;28;20020;-65
2022/01/17 00:56:34;;;;;;;82.23;49.77;;;;;;;4.13;100.00;103083.06;5109974;28;20016;-64
2022/01/17 00:58:59;;;;;;;89.37;49.60;;;;;;;4.15;100.00;103090.91;5110166;28;20494;-64
2022/01/17 01:01:25;;;;;;;78.27;47.53;;;;;;;4.16;100.00;103095.25;5110303;28;20209;-65
2022/01/17 01:03:50;;;;;;;77.87;48.23;;;;;;;4.15;100.00;103083.19;5096954;28;20313;-64
2022/01/17 01:06:16;;;;;;;74.30;45.27;;;;;;;4.16;100.00;103092.69;5089471;28;20103;-65
2022/01/17 01:08:41;;;;;;;72.70;43.97;;;;;;;4.17;100.00;103091.97;5089338;28;20124;-65
2022/01/17 01:11:07;;;;;;;61.73;41.87;;;;;;;4.19;100.00;103106.72;5089523;28;20111;-64
2022/01/17 01:13:33;;;;;;;64.90;40.57;;;;;;;4.23;100.00;103100.22;5089548;28;20043;-64
2022/01/17 01:16:11;;;;;;;65.13;41.67;;;;;;;4.21;100.00;103099.16;5089343;28;20022;-64
2022/01/17 01:19:08;;;;;;;64.43;40.60;;;;;;;4.21;100.00;103106.88;5089405;28;20028;-65
2022/01/17 01:29:50;;;;;;;65.00;38.50;;;;;;;4.20;100.00;103094.81;5089764;28;20444;-64
2022/01/17 01:32:20;;;;;;;63.73;39.73;;;;;;;4.19;100.00;103090.44;5094805;28;20070;-65
2022/01/17 01:34:50;;;;;;;66.07;41.72;;;;;;;4.19;100.00;103099.03;5109777;28;20020;-65
2022/01/17 01:37:16;;;;;;;61.33;39.47;;;;;;;4.18;100.00;103088.63;5109998;28;20020;-65
2022/01/17 01:39:41;;;;;;;69.67;39.70;;;;;;;4.18;100.00;103083.50;5091105;28;20402;-64
2022/01/17 01:42:15;;;;;;;69.83;40.50;;;;;;;4.18;100.00;103098.88;5109624;28;20035;-64
2022/01/17 01:44:40;;;;;;;57.77;39.20;;;;;;;4.18;100.00;103099.81;5109896;28;20156;-65
2022/01/17 01:47:06;;;;;;;64.30;41.10;;;;;;;4.17;100.00;103109.94;5109419;28;20051;-65
2022/01/17 01:49:31;;;;;;;68.87;41.20;;;;;;;4.16;100.00;103121.84;5109869;28;20064;-65
2022/01/17 01:51:57;;;;;;;67.67;39.57;;;;;;;4.14;100.00;103120.78;5091205;28;20055;-64
2022/01/17 01:54:22;;;;;;;58.87;37.20;;;;;;;4.12;100.00;103124.00;5110215;28;20027;-64
2022/01/17 01:56:49;;;;;;;55.53;36.60;;;;;;;4.10;100.00;103122.94;5113432;28;20383;-64
2022/01/17 01:59:16;;;;;;;58.00;36.50;;;;;;;4.08;100.00;103118.53;5113274;28;20063;-64
2022/01/17 02:01:42;;;;;;;59.10;35.57;;;;;;;4.06;100.00;103109.81;5106356;28;20376;-64
2022/01/17 02:04:07;;;;;;;56.90;34.87;;;;;;;4.01;100.00;103108.44;5093005;28;20039;-65
2022/01/17 02:06:33;;;;;;;58.50;35.07;;;;;;;4.00;100.00;103123.69;5092631;28;20028;-65
2022/01/17 02:09:00;;;;;;;54.10;33.70;;;;;;;3.96;100.00;103114.81;5092625;28;20047;-64
2022/01/17 02:11:25;;;;;;;53.30;32.90;;;;;;;3.92;100.00;103116.16;5092557;28;20107;-64
2022/01/17 02:13:51;;;;;;;48.37;33.93;;;;;;;3.92;100.00;103117.84;5092496;28;20153;-64
2022/01/17 02:16:16;;;;;;;54.93;32.40;;;;;;;3.88;100.00;103113.19;5092601;28;20024;-64
2022/01/17 02:18:45;;;;;;;49.07;30.20;;;;;;;3.84;100.00;103107.75;5092589;28;20020;-65
2022/01/17 02:21:21;;;;;;;48.57;28.37;;;;;;;3.80;100.00;103110.78;5074381;28;20036;-64
2022/01/17 02:23:48;;;;;;;45.40;27.80;;;;;;;3.76;100.00;103123.16;5092001;28;20039;-64
2022/01/17 02:26:15;;;;;;;42.07;28.90;;;;;;;3.71;100.00;103104.75;5092244;28;20032;-64
2022/01/17 02:28:52;;;;;;;43.20;26.53;;;;;;;3.65;100.00;103106.75;5092545;28;20388;-64
2022/01/17 02:31:19;;;;;;;42.63;27.60;;;;;;;3.62;100.00;103109.00;5099932;28;20110;-64
2022/01/17 02:33:45;;;;;;;45.17;26.97;;;;;;;3.57;100.00;103105.97;5112625;28;20043;-64
2022/01/17 02:36:11;;;;;;;44.40;26.77;;;;;;;3.53;100.00;103109.91;5112901;28;20421;-64
2022/01/17 02:38:40;;;;;;;42.93;26.40;;;;;;;3.50;100.00;103125.00;5112398;28;20023;-64
2022/01/17 02:41:05;;;;;;;45.77;26.53;;;;;;;3.48;100.00;103126.50;5112719;28;20088;-64
2022/01/17 02:43:32;;;;;;;41.50;24.93;;;;;;;3.44;100.00;103114.13;5112598;28;20035;-64
2022/01/17 02:48:29;;;;;;;40.53;24.90;;;;;;;3.38;100.00;103114.47;5112267;28;20555;-64
2022/01/17 02:50:55;;;;;;;39.70;24.97;;;;;;;3.35;100.00;103121.81;5112265;28;20028;-65
2022/01/17 02:53:20;;;;;;;35.33;24.07;;;;;;;3.31;100.00;103117.16;5110451;28;20042;-64
2022/01/17 02:55:52;;;;;;;41.33;23.97;;;;;;;3.28;100.00;103121.97;5112363;28;20019;-64
2022/01/17 02:58:20;;;;;;;43.50;24.75;;;;;;;3.25;100.00;103122.59;5112228;28;20035;-65
2022/01/17 03:00:47;;;;;;;36.13;24.77;;;;;;;3.22;100.00;103124.84;5111888;28;20471;-64
2022/01/17 03:03:21;;;;;;;41.53;25.50;;;;;;;3.19;100.00;103120.31;5112112;28;20110;-64
2022/01/17 03:05:48;;;;;;;41.33;24.87;;;;;;;3.18;100.00;103120.16;5111483;28;20103;-64
2022/01/17 03:08:15;;;;;;;40.03;25.63;;;;;;;3.15;100.00;103115.63;5095651;28;20044;-64
2022/01/17 03:10:43;;;;;;;43.53;27.73;;;;;;;3.12;100.00;103108.56;5091652;28;20472;-64
2022/01/17 03:13:19;;;;;;;42.43;26.93;;;;;;;3.11;100.00;103101.63;5091414;28;20023;-64
2022/01/17 03:15:47;;;;;;;48.00;28.07;;;;;;;3.09;100.00;103100.59;5091281;28;20077;-64
2022/01/17 03:18:12;;;;;;;47.40;28.17;;;;;;;3.07;100.00;103104.66;5091462;28;20020;-64
2022/01/17 03:20:38;;;;;;;45.47;28.93;;;;;;;3.07;100.00;103114.91;5091223;28;20552;-64
2022/01/17 03:23:04;;;;;;;46.63;29.73;;;;;;;3.05;100.00;103108.72;5102731;28;20672;-64
2022/01/17 03:25:30;;;;;;;45.60;29.87;;;;;;;3.04;100.00;103098.31;5111406;28;20103;-64
2022/01/17 03:27:56;;;;;;;44.40;29.20;;;;;;;3.00;100.00;103094.53;5111503;28;20518;-64
2022/01/17 03:30:22;;;;;;;50.10;29.47;;;;;;;2.96;100.00;103098.44;5111195;28;20027;-64
2022/01/17 03:32:48;;;;;;;47.63;28.87;;;;;;;2.94;100.00;103102.50;5110925;28;20475;-63
2022/01/17 03:35:14;;;;;;;42.87;28.40;;;;;;;2.90;100.00;103102.94;5111456;28;20043;-64
2022/01/17 03:37:39;;;;;;;45.97;27.97;;;;;;;2.87;100.00;103113.81;5111260;28;20073;-63
2022/01/17 03:40:05;;;;;;;49.87;29.63;;;;;;;2.87;100.00;103113.81;5076651;28;20035;-64
2022/01/17 03:42:31;;;;;;;51.47;31.10;;;;;;;2.86;100.00;103111.97;5091224;28;20077;-64
2022/01/17 03:44:56;;;;;;;50.30;28.40;;;;;;;2.85;100.00;103120.44;5090735;28;20425;-64
2022/01/17 03:47:22;;;;;;;53.27;31.33;;;;;;;2.85;100.00;103125.56;5090801;28;20030;-63
2022/01/17 03:49:47;;;;;;;44.87;28.90;;;;;;;2.83;100.00;103119.38;5090691;28;20024;-64
2022/01/17 03:52:13;;;;;;;52.50;30.33;;;;;;;2.82;100.00;103111.53;5094766;28;20126;-63
2022/01/17 03:54:39;;;;;;;45.37;28.77;;;;;;;2.81;100.00;103123.41;5110936;28;20124;-64
2022/01/17 03:57:04;;;;;;;46.20;29.73;;;;;;;2.81;100.00;103110.63;5111146;28;20394;-63
2022/01/17 03:59:29;;;;;;;48.33;28.40;;;;;;;2.79;100.00;103114.69;5111104;28;20038;-64
2022/01/17 04:01:55;;;;;;;52.33;29.90;;;;;;;2.77;100.00;103105.94;5110972;28;20031;-64
2022/01/17 04:04:20;;;;;;;46.77;29.57;;;;;;;2.77;100.00;103111.06;5111040;28;20028;-64
2022/01/17 04:06:46;;;;;;;48.07;28.10;;;;;;;2.79;100.00;103114.69;5110608;28;20378;-64
2022/01/17 04:09:11;;;;;;;56.30;28.37;;;;;;;2.83;100.00;103110.78;5102307;28;20036;-64
2022/01/17 04:11:37;;;;;;;45.87;27.77;;;;;;;2.84;100.00;103113.47;5090335;28;20107;-64
2022/01/17 04:14:06;;;;;;;42.83;26.10;;;;;;;2.86;100.00;103114.53;5090625;28;20561;-64
2022/01/17 04:16:33;;;;;;;42.80;26.73;;;;;;;2.86;100.00;103124.78;5071699;28;20054;-64
2022/01/17 04:18:58;;;;;;;43.30;26.13;;;;;;;2.90;100.00;103125.13;5090091;28;20090;-63
2022/01/17 04:21:30;;;;;;;39.10;25.23;;;;;;;2.90;100.00;103130.25;5090340;28;20020;-63
2022/01/17 04:23:56;;;;;;;42.10;25.10;;;;;;;2.90;100.00;103120.00;5108304;28;20031;-63
2022/01/17 04:26:21;;;;;;;37.70;23.83;;;;;;;2.90;100.00;103128.56;5110492;28;20011;-64
2022/01/17 04:28:46;;;;;;;36.53;22.57;;;;;;;2.90;100.00;103131.13;5110927;28;20031;-64
2022/01/17 04:31:11;;;;;;;40.47;23.70;;;;;;;2.90;100.00;103140.50;5110632;28;20035;-64
2022/01/17 04:33:37;;;;;;;35.60;21.80;;;;;;;2.87;100.00;103139.41;5094359;28;20036;-64
2022/01/17 04:36:06;;;;;;;37.90;19.83;;;;;;;2.84;100.00;103133.97;5090145;28;20056;-64
2022/01/17 04:38:32;;;;;;;29.37;19.20;;;;;;;2.82;100.00;103139.72;5089923;28;20028;-63
2022/01/17 04:41:03;;;;;;;25.73;17.57;;;;;;;2.76;100.00;103129.75;5089846;28;20043;-63
2022/01/17 04:46:04;;;;;;;29.97;18.70;;;;;;;2.67;100.00;103128.81;5089523;28;20272;-63
2022/01/17 04:48:30;;;;;;;32.73;17.63;;;;;;;2.61;100.00;103134.19;5105147;28;20039;-63
2022/01/17 04:50:55;;;;;;;33.27;19.00;;;;;;;2.58;100.00;103129.69;5110051;28;20398;-63
2022/01/17 04:53:21;;;;;;;33.07;18.50;;;;;;;2.55;100.00;103124.28;5110243;28;20471;-64
2022/01/17 04:55:47;;;;;;;31.93;18.27;;;;;;;2.55;100.00;103123.34;5110052;28;20016;-63
2022/01/17 04:58:13;;;;;;;29.77;17.93;;;;;;;2.53;100.00;103130.88;5110002;28;20050;-63
2022/01/17 05:00:46;;;;;;;25.00;16.90;;;;;;;2.52;100.00;103134.19;5109899;28;20027;-63
2022/01/17 05:03:15;;;;;;;28.60;17.77;;;;;;;2.49;100.00;103142.47;5108458;28;20036;-63
2022/01/17 05:05:41;;;;;;;29.87;17.37;;;;;;;2.48;100.00;103162.78;5109810;28;20023;-64
2022/01/17 05:08:06;;;;;;;29.30;17.13;;;;;;;2.48;100.00;103147.44;5109682;28;20143;-64
2022/01/17 05:10:31;;;;;;;29.83;17.90;;;;;;;2.45;100.00;103145.44;5110105;28;20067;-64
2022/01/17 05:12:57;;;;;;;30.17;17.50;;;;;;;2.46;100.00;103154.97;5109865;28;20084;-64
2022/01/17 05:18:01;;;;;;;30.07;18.13;;;;;;;2.48;100.00;103171.34;5093624;28;20040;-64
2022/01/17 05:20:27;;;;;;;29.17;17.57;;;;;;;2.50;100.00;103176.66;5089585;28;20403;-63
2022/01/17 05:22:53;;;;;;;30.30;18.17;;;;;;;2.51;100.00;103169.13;5089285;28;20028;-64
2022/01/17 05:25:19;;;;;;;31.00;18.23;;;;;;;2.50;100.00;103171.53;5089279;28;20027;-63
2022/01/17 05:27:45;;;;;;;23.57;16.30;;;;;;;2.48;100.00;103167.91;5089516;28;20491;-64
2022/01/17 05:30:14;;;;;;;30.57;16.90;;;;;;;2.45;100.00;103172.69;5075215;28;20244;-64
2022/01/17 05:32:40;;;;;;;25.70;17.63;;;;;;;2.44;100.00;103173.44;5093202;28;20028;-63
2022/01/17 05:35:07;;;;;;;30.27;18.03;;;;;;;2.40;100.00;103172.22;5113573;28;20031;-64
2022/01/17 05:37:33;;;;;;;29.50;17.73;;;;;;;2.38;100.00;103171.16;5113794;28;20023;-63
2022/01/17 05:39:58;;;;;;;30.97;17.97;;;;;;;2.33;100.00;103170.69;5113728;28;20028;-64
2022/01/17 05:42:24;;;;;;;24.73;16.97;;;;;;;2.28;100.00;103180.44;5113641;28;20038;-63
2022/01/17 05:44:50;;;;;;;27.63;18.00;;;;;;;2.27;100.00;103188.88;5113482;28;20075;-63
2022/01/17 05:47:16;;;;;;;28.47;17.93;;;;;;;2.23;100.00;103178.19;5101515;28;20119;-63
2022/01/17 05:49:41;;;;;;;32.13;21.17;;;;;;;2.22;100.00;103178.91;5093420;28;20107;-63
2022/01/17 05:52:07;;;;;;;26.13;19.30;;;;;;;2.22;100.00;103177.25;5074932;28;20452;-63
2022/01/17 05:54:32;;;;;;;28.80;20.23;;;;;;;2.22;100.00;103176.34;5093075;28;20060;-63
2022/01/17 05:56:58;;;;;;;30.50;21.20;;;;;;;2.20;100.00;103170.16;5093031;28;20028;-63
2022/01/17 05:59:23;;;;;;;31.37;19.37;;;;;;;2.18;100.00;103170.00;5092920;28;20024;-64
2022/01/17 06:01:48;;;;;;;27.40;20.50;;;;;;;2.16;100.00;103174.97;5093073;28;20055;-63
2022/01/17 06:04:14;;;;;;;32.17;20.90;;;;;;;2.15;100.00;103183.41;5105890;28;20053;-64
2022/01/17 06:06:39;;;;;;;34.43;22.77;;;;;;;2.15;100.00;103185.97;5113069;28;20536;-64
2022/01/17 06:09:04;;;;;;;37.60;23.37;;;;;;;2.15;100.00;103193.63;5113003;28;20052;-63
2022/01/17 06:11:33;;;;;;;34.13;23.67;;;;;;;2.14;100.00;103185.81;5113241;28;20031;-64
2022/01/17 06:13:59;;;;;;;37.50;23.03;;;;;;;2.15;100.00;103192.72;5113354;28;20058;-64
2022/01/17 06:16:25;;;;;;;35.33;23.17;;;;;;;2.12;100.00;103198.41;5097431;28;20086;-64
2022/01/17 06:18:50;;;;;;;43.50;25.30;;;;;;;2.12;100.00;103192.41;5092576;28;20028;-64
2022/01/17 06:21:16;;;;;;;39.70;25.17;;;;;;;2.13;100.00;103189.09;5092371;28;20468;-64
2022/01/17 06:23:41;;;;;;;41.20;26.27;;;;;;;2.12;100.00;103187.28;5092424;28;20112;-64
2022/01/17 06:26:06;;;;;;;40.03;27.87;;;;;;;2.14;100.00;103191.81;5104420;28;20464;-64
2022/01/17 06:28:32;;;;;;;40.63;27.90;;;;;;;2.18;100.00;103192.16;5112851;28;20511;-63
2022/01/17 06:30:57;;;;;;;43.63;28.37;;;;;;;2.18;100.00;103189.59;5112744;28;20057;-64
2022/01/17 06:33:23;;;;;;;42.90;27.97;;;;;;;2.18;100.00;103194.72;5112317;28;20114;-64
2022/01/17 06:35:48;;;;;;;38.17;27.53;;;;;;;2.16;100.00;103187.75;5112567;28;20028;-63
2022/01/17 06:38:14;;;;;;;38.17;27.43;;;;;;;2.15;100.00;103190.16;5112633;28;20019;-64
2022/01/17 06:40:39;;;;;;;42.67;28.53;;;;;;;2.12;100.00;103200.97;5102400;28;20032;-64
2022/01/17 06:43:08;;;;;;;43.17;28.80;;;;;;;2.11;100.00;103201.72;5074217;28;20035;-64
2022/01/17 06:45:34;;;;;;;43.97;29.67;;;;;;;2.15;100.00;103214.09;5094794;28;20028;-64
2022/01/17 06:48:00;;;;;;;52.07;31.70;;;;;;;2.18;100.00;103202.38;5101755;28;20035;-64
2022/01/17 06:50:26;;;;;;;48.93;30.50;;;;;;;2.21;100.00;103202.69;5100966;28;20029;-64
2022/01/17 06:52:51;;;;;;;46.13;30.20;;;;;;;2.23;100.00;103207.22;5104195;28;20038;-63
2022/01/17 06:55:17;;;;;;;46.77;31.10;;;;;;;2.26;100.00;103216.88;5107588;28;20023;-64
2022/01/17 06:57:42;;;;;;;51.03;32.10;;;;;;;2.26;100.00;103225.47;5112159;28;20063;-64
2022/01/17 07:00:09;;;;;;;48.30;31.87;;;;;;;2.28;100.00;103234.19;5106866;28;20369;-63
2022/01/17 07:02:34;;;;;;;45.43;30.40;;;;;;;2.27;100.00;103241.69;5091823;28;20027;-64
2022/01/17 07:05:00;;;;;;;48.67;30.87;;;;;;;2.26;100.00;103250.13;5091626;27;20038;-64
2022/01/17 07:07:25;;;;;;;45.93;30.97;;;;;;;2.25;100.00;103248.31;5104300;28;20051;-64
2022/01/17 07:09:51;;;;;;;45.03;31.13;;;;;;;2.24;100.00;103260.22;5108837;28;20028;-64
2022/01/17 07:12:16;;;;;;;48.73;32.27;;;;;;;2.23;100.00;103268.63;5107550;27;20028;-64
2022/01/17 07:14:42;;;;;;;46.73;31.53;;;;;;;2.23;100.00;103250.72;5111911;28;20528;-64
2022/01/17 07:40:04;;;;;;;50.83;34.30;;;;;;;2.20;100.00;103235.03;5096451;28;20509;-64
2022/01/17 07:42:29;;;;;;;46.90;33.50;;;;;;;2.21;100.00;103233.41;5108651;28;20019;-64
2022/01/17 07:44:56;;;;;;;52.37;36.00;;;;;;;2.21;100.00;103234.31;5109982;28;20104;-65
2022/01/17 07:50:12;;;;;;;50.63;32.63;;;;;;;2.20;100.00;103236.69;5102954;28;20140;-64
2022/01/17 07:52:37;;;;;;;49.63;32.97;;;;;;;2.20;100.00;103250.41;5104551;28;20016;-64
2022/01/17 07:55:03;;;;;;;52.80;34.30;;;;;;;2.21;100.00;103249.66;5100482;28;20026;-64
2022/01/17 07:57:29;;;;;;;49.83;32.43;;;;;;;2.23;100.00;103254.94;5104914;28;20020;-63
2022/01/17 07:59:54;;;;;;;51.83;33.97;;;;;;;2.26;100.00;103262.94;5099866;28;20069;-64
2022/01/17 08:02:20;;;;;;;50.30;34.00;;;;;;;2.28;100.00;103259.78;5081325;27;20067;-64
2022/01/17 08:04:45;;;;;;;53.27;34.40;;;;;;;2.32;100.00;103272.91;5102284;28;20535;-63
2022/01/17 08:07:10;;;;;;;50.60;35.43;;;;;;;2.34;100.00;103277.44;5102174;28;20056;-64
2022/01/17 08:09:36;;;;;;;56.13;35.53;;;;;;;2.37;100.00;103275.22;5108972;28;20024;-64
2022/01/17 08:12:08;;;;;;;50.90;33.97;;;;;;;2.41;100.00;103284.13;5106645;28;20055;-63
2022/01/17 08:14:33;;;;;;;54.83;34.57;;;;;;;2.43;100.00;103290.28;5109703;28;20043;-65
2022/01/17 08:16:59;;;;;;;52.77;34.60;;;;;;;2.44;100.00;103268.16;5094737;28;20028;-64
2022/01/17 08:19:25;;;;;;;50.93;33.93;;;;;;;2.45;100.00;103270.88;5107345;28;20372;-65
2022/01/17 08:21:52;;;;;;;59.47;36.17;;;;;;;2.48;100.00;103276.31;5108908;27;20505;-64
2022/01/17 08:24:19;;;;;;;58.27;34.13;;;;;;;2.53;100.00;103281.94;5121458;27;20430;-64
2022/01/17 08:26:44;;;;;;;54.10;36.13;;;;;;;2.57;100.00;103288.28;5130228;27;20045;-64
2022/01/17 08:29:10;;;;;;;50.83;34.57;;;;;;;2.61;100.00;103273.38;5110478;27;20111;-64
2022/01/17 08:31:36;;;;;;;55.63;34.30;;;;;;;2.66;100.00;103280.66;5104857;28;20077;-64
2022/01/17 08:34:01;;;;;;;48.43;33.83;;;;;;;2.70;100.00;103283.66;5104718;27;20035;-64
2022/01/17 08:36:26;;;;;;;54.70;34.40;;;;;;;2.73;100.00;103291.69;5095725;27;20115;-64
2022/01/17 08:38:53;;;;;;;54.60;33.30;;;;;;;2.75;100.00;103281.59;5091666;28;20546;-64
2022/01/17 08:41:19;;;;;;;51.17;33.93;;;;;;;2.78;100.00;103287.03;5110921;27;20047;-64
2022/01/17 08:43:47;;;;;;;51.17;34.03;;;;;;;2.82;100.00;103288.25;5113920;27;20023;-64
2022/01/17 08:46:13;;;;;;;49.10;32.60;;;;;;;2.83;100.00;103269.56;5122144;27;20031;-64
2022/01/17 08:48:39;;;;;;;49.87;31.37;;;;;;;2.86;100.00;103265.66;5129274;27;20498;-64
2022/01/17 08:51:05;;;;;;;50.30;33.00;;;;;;;2.86;100.00;103259.66;5123303;27;20102;-64
2022/01/17 08:53:30;;;;;;;56.27;34.13;;;;;;;2.89;100.00;103275.34;5110414;27;20031;-64
2022/01/17 08:55:56;;;;;;;48.80;32.17;;;;;;;2.90;100.00;103264.31;5100003;28;20536;-64
2022/01/17 08:58:21;;;;;;;46.97;32.27;;;;;;;2.94;100.00;103288.59;5111255;27;20024;-64
2022/01/17 09:00:46;;;;;;;48.87;32.33;;;;;;;2.95;100.00;103286.19;5111134;28;20387;-64
2022/01/17 09:03:13;;;;;;;51.10;33.17;;;;;;;2.95;100.00;103286.19;5129549;27;20045;-64
2022/01/17 09:05:39;;;;;;;52.73;32.40;;;;;;;2.97;100.00;103283.78;5103427;28;20027;-64
2022/01/17 09:08:05;;;;;;;48.50;32.60;;;;;;;3.00;100.00;103289.25;5105303;28;20048;-64
2022/01/17 09:10:31;;;;;;;48.93;32.43;;;;;;;3.03;100.00;103294.69;5117510;28;20447;-65
2022/01/17 09:12:57;;;;;;;50.33;30.70;;;;;;;3.05;100.00;103292.28;5109014;28;20030;-64
2022/01/17 09:15:24;;;;;;;47.97;32.23;;;;;;;3.08;100.00;103288.38;5116757;28;20111;-64
2022/01/17 09:17:49;;;;;;;46.67;30.93;;;;;;;3.09;100.00;103303.00;5125414;28;20434;-64
2022/01/17 09:20:14;;;;;;;47.57;29.77;;;;;;;3.14;100.00;103323.97;5108585;28;20102;-63
2022/01/17 09:22:40;;;;;;;49.27;29.60;;;;;;;3.18;100.00;103320.97;5117440;28;20027;-64
2022/01/17 09:25:07;;;;;;;49.77;29.40;;;;;;;3.21;100.00;103328.97;5110884;28;20018;-64
2022/01/17 09:27:36;;;;;;;42.50;29.50;;;;;;;3.25;100.00;103332.75;5091533;28;20036;-64
2022/01/17 09:30:08;;;;;;;36.63;26.77;;;;;;;3.28;100.00;103333.06;5105361;28;20015;-64
2022/01/17 09:32:33;;;;;;;49.13;28.70;;;;;;;3.34;100.00;103338.84;5119286;28;20039;-64
2022/01/17 09:34:59;;;;;;;47.87;26.60;;;;;;;3.41;100.00;103336.88;5088370;28;20046;-64
2022/01/17 09:37:24;;;;;;;43.07;26.50;;;;;;;3.44;100.00;103338.09;5117148;28;20444;-64
2022/01/17 09:39:49;;;;;;;43.50;25.27;;;;;;;3.51;100.00;103326.78;5125044;28;20095;-64
2022/01/17 09:42:15;;;;;;;44.10;25.33;;;;;;;3.55;100.00;103333.13;5085071;28;20475;-64
2022/01/17 09:44:41;;;;;;;39.70;23.90;;;;;;;3.58;100.00;103324.09;5107751;28;20034;-64
2022/01/17 09:47:08;;;;;;;38.57;22.57;;;;;;;3.63;100.00;103331.34;5101323;28;20022;-64
2022/01/17 09:49:40;;;;;;;40.93;23.57;;;;;;;3.65;100.00;103335.88;5116905;28;20034;-64
2022/01/17 09:54:53;;;;;;;37.47;20.37;;;;;;;3.71;100.00;103351.91;5107426;28;20116;-64
2022/01/17 09:57:19;;;;;;;27.63;19.37;;;;;;;3.75;100.00;103354.75;5101925;28;20027;-64
2022/01/17 09:59:45;;;;;;;38.50;19.50;;;;;;;3.77;100.00;103361.88;5113826;28;20277;-64
2022/01/17 10:02:11;;;;;;;36.73;21.33;;;;;;;3.80;100.00;103386.91;5107434;28;20042;-64
2022/01/17 10:04:37;;;;;;;33.43;18.50;;;;;;;3.81;100.00;103371.66;5113265;27;20684;-65
2022/01/17 10:07:05;;;;;;;34.73;18.43;;;;;;;3.84;100.00;103363.38;5108582;28;20016;-64
2022/01/17 10:09:33;;;;;;;36.10;17.75;;;;;;;3.87;100.00;103375.63;5114734;28;20038;-64
2022/01/17 10:12:11;;;;;;;29.10;17.43;;;;;;;3.87;100.00;103368.81;5104939;28;20027;-64
2022/01/17 10:14:43;;;;;;;36.93;16.90;;;;;;;3.87;100.00;103366.25;5104272;28;20079;-64
2022/01/17 10:17:16;;;;;;;31.70;17.07;;;;;;;3.90;100.00;103375.94;5110331;27;20020;-64
2022/01/17 10:19:43;;;;;;;30.93;16.90;;;;;;;3.92;100.00;103366.72;5111793;27;20031;-64
2022/01/17 10:22:16;;;;;;;27.77;16.48;;;;;;;3.93;100.00;103358.25;5110696;27;20383;-65
2022/01/17 10:24:59;;;;;;;32.07;15.90;;;;;;;3.96;100.00;103363.69;5111581;27;20505;-64
2022/01/17 10:35:36;;;;;;;32.00;15.07;;;;;;;4.02;100.00;103379.72;5117408;27;20131;-64
2022/01/17 10:38:10;;;;;;;31.33;14.03;;;;;;;4.05;100.00;103391.94;5125595;27;20027;-64
2022/01/17 10:40:57;;;;;;;32.47;13.77;;;;;;;4.07;100.00;103380.16;5092757;28;20186;-64
2022/01/17 10:43:35;;;;;;;30.40;14.13;;;;;;;4.08;100.00;103395.72;5094390;28;20508;-65
2022/01/17 10:46:03;;;;;;;27.27;12.97;;;;;;;4.11;100.00;103384.84;5110653;27;20106;-64
2022/01/17 10:48:38;;;;;;;33.20;13.67;;;;;;;4.12;100.00;103388.34;5121948;27;20037;-64
2022/01/17 10:51:05;;;;;;;27.20;13.10;;;;;;;4.14;100.00;103384.25;5118660;27;20039;-64
2022/01/17 10:53:30;;;;;;;27.20;12.43;;;;;;;4.17;100.00;103392.28;5111279;28;20027;-64
2022/01/17 10:55:58;;;;;;;31.45;13.25;;;;;;;4.20;100.00;103395.13;5108480;28;20429;-64
2022/01/17 10:58:28;;;;;;;26.40;11.43;;;;;;;4.24;100.00;103404.97;5101190;28;20168;-64
2022/01/17 11:00:57;;;;;;;29.77;11.67;;;;;;;4.28;100.00;103398.47;5091588;28;20519;-65
2022/01/17 11:03:30;;;;;;;23.07;11.03;;;;;;;4.33;100.00;103410.97;5103077;28;20490;-64
2022/01/17 11:05:57;;;;;;;28.20;10.70;;;;;;;4.38;100.00;103416.59;5111005;28;20016;-64
2022/01/17 11:08:26;;;;;;;25.60;9.27;;;;;;;4.42;100.00;103407.53;5111984;28;20553;-65
2022/01/17 11:10:54;;;;;;;29.00;8.83;;;;;;;4.49;100.00;103414.16;5111053;28;20019;-64
2022/01/17 11:13:22;;;;;;;25.58;8.23;;;;;;;4.50;100.00;103432.28;5103054;28;20126;-65
2022/01/17 11:15:56;;;;;;;17.17;8.77;;;;;;;4.54;100.00;103412.97;5091543;28;20115;-64
2022/01/17 11:18:26;;;;;;;23.13;8.93;;;;;;;4.57;100.00;103408.13;5098268;28;20106;-64
2022/01/17 11:20:57;;;;;;;24.77;8.60;;;;;;;4.60;100.00;103418.72;5111150;28;20027;-64
2022/01/17 11:23:24;;;;;;;21.37;8.67;;;;;;;4.61;100.00;103410.22;5102922;28;20024;-65
2022/01/17 11:25:55;;;;;;;19.65;8.48;;;;;;;4.64;100.00;103401.94;5092495;28;20032;-65
2022/01/17 11:28:26;;;;;;;20.15;8.20;;;;;;;4.66;100.00;103405.53;5093027;28;20361;-65
2022/01/17 11:30:54;;;;;;;22.45;7.68;;;;;;;4.68;100.00;103396.31;5092903;28;20022;-65
2022/01/17 11:33:21;;;;;;;18.00;7.43;;;;;;;4.70;100.00;103392.25;5091081;28;20078;-65
2022/01/17 11:35:51;;;;;;;23.23;8.00;;;;;;;4.72;100.00;103400.09;5095811;28;20059;-64
2022/01/17 11:38:50;;;;;;;26.20;7.60;;;;;;;4.73;100.00;103379.69;5111275;28;20451;-64
2022/01/17 11:41:29;;;;;;;18.17;7.10;;;;;;;4.76;100.00;103376.53;5027710;28;20042;-65
2022/01/17 11:44:01;;;;;;;26.17;8.02;;;;;;;4.84;100.00;103387.56;5027409;28;20041;-64
2022/01/17 11:46:28;;;;;;;;;;;;;;;4.86;100.00;103396.28;5028207;28;20041;-64
2022/01/17 11:49:08;;;;;;;21.37;7.33;;;;;;;4.87;100.00;103406.75;5027565;28;19916;-65
2022/01/17 11:51:39;;;;;;;17.70;7.40;;;;;;;4.90;100.00;103408.69;5027957;28;20034;-64
2022/01/17 11:54:19;;;;;;;23.90;7.95;;;;;;;4.93;100.00;103424.38;5027822;28;20037;-64
2022/01/17 11:56:53;;;;;;;21.67;6.97;;;;;;;4.95;100.00;103432.28;5027710;28;20137;-65
2022/01/17 11:59:31;;;;;;;23.92;7.30;;;;;;;4.98;100.00;103424.84;5027444;28;20041;-64
2022/01/17 12:02:19;;;;;;;20.45;7.20;;;;;;;5.01;100.00;103418.34;5027657;28;20032;-65